sensor_id;sensor_type;location;lat;lon;timestamp;temperature;humidity
12438;DHT22;6283;51.330;12.374;2023-02-12T00:01:49;6.80;1.00
12438;DHT22;6283;51.330;12.374;2023-02-12T00:04:14;7.00;1.00
12438;DHT22;6283;51.330;12.374;2023-02-12T00:06:40;6.90;1.00
12438;DHT22;6283;51.330;12.374;2023-02-12T00:09:06;7.00;1.00
12438;DHT22;6283;51.330;12.374;2023-02-12T00:11:32;7.00;1.00
12438;DHT22;6283;51.330;12.374;2023-02-12T00:13:57;7.00;1.00
12438;DHT22;6283;51.330;12.374;2023-02-12T00:16:25;6.90;1.00
12438;DHT22;6283;51.330;12.374;2023-02-12T00:18:53;6.80;1.00
12438;DHT22;6283;51.330;12.374;2023-02-12T00:21:19;6.90;1.00
12438;DHT22;6283;51.330;12.374;2023-02-12T00:23:45;7.20;1.00
12438;DHT22;6283;51.330;12.374;2023-02-12T00:26:13;7.00;1.00
12438;DHT22;6283;51.330;12.374;2023-02-12T00:28:39;6.90;1.00
12438;DHT22;6283;51.330;12.374;2023-02-12T00:31:10;6.80;1.00
12438;DHT22;6283;51.330;12.374;2023-02-12T00:33:36;6.90;1.00
12438;DHT22;6283;51.330;12.374;2023-02-12T00:36:02;6.80;1.00
12438;DHT22;6283;51.330;12.374;2023-02-12T00:38:27;7.10;1.00
12438;DHT22;6283;51.330;12.374;2023-02-12T00:40:53;7.00;1.00
12438;DHT22;6283;51.330;12.374;2023-02-12T00:43:19;6.90;1.00
12438;DHT22;6283;51.330;12.374;2023-02-12T00:45:45;6.90;1.00
12438;DHT22;6283;51.330;12.374;2023-02-12T00:48:11;6.90;1.00
12438;DHT22;6283;51.330;12.374;2023-02-12T00:50:37;6.90;1.00
12438;DHT22;6283;51.330;12.374;2023-02-12T00:53:05;7.10;1.00
12438;DHT22;6283;51.330;12.374;2023-02-12T00:55:31;7.00;1.00
12438;DHT22;6283;51.330;12.374;2023-02-12T00:57:57;7.00;1.00
12438;DHT22;6283;51.330;12.374;2023-02-12T01:00:23;6.90;1.00
12438;DHT22;6283;51.330;12.374;2023-02-12T01:02:48;6.80;1.00
12438;DHT22;6283;51.330;12.374;2023-02-12T01:05:14;6.90;1.00
12438;DHT22;6283;51.330;12.374;2023-02-12T01:07:40;6.90;1.00
12438;DHT22;6283;51.330;12.374;2023-02-12T01:10:06;6.90;1.00
12438;DHT22;6283;51.330;12.374;2023-02-12T01:12:32;7.10;1.00
12438;DHT22;6283;51.330;12.374;2023-02-12T01:14:58;7.00;1.00
12438;DHT22;6283;51.330;12.374;2023-02-12T01:17:23;6.90;1.00
12438;DHT22;6283;51.330;12.374;2023-02-12T01:19:49;7.00;1.00
12438;DHT22;6283;51.330;12.374;2023-02-12T01:22:15;7.00;1.00
12438;DHT22;6283;51.330;12.374;2023-02-12T01:24:40;6.90;1.00
12438;DHT22;6283;51.330;12.374;2023-02-12T01:27:06;6.80;1.00
12438;DHT22;6283;51.330;12.374;2023-02-12T01:29:32;7.10;1.00
12438;DHT22;6283;51.330;12.374;2023-02-12T01:31:57;7.00;1.00
12438;DHT22;6283;51.330;12.374;2023-02-12T01:34:23;7.00;1.00
12438;DHT22;6283;51.330;12.374;2023-02-12T01:36:48;7.00;1.00
12438;DHT22;6283;51.330;12.374;2023-02-12T01:39:14;7.00;1.00
12438;DHT22;6283;51.330;12.374;2023-02-12T01:41:42;7.00;1.00
12438;DHT22;6283;51.330;12.374;2023-02-12T01:44:17;6.90;1.00
12438;DHT22;6283;51.330;12.374;2023-02-12T01:46:44;6.90;1.00
12438;DHT22;6283;51.330;12.374;2023-02-12T01:49:18;7.10;1.00
12438;DHT22;6283;51.330;12.374;2023-02-12T01:51:47;7.00;1.00
12438;DHT22;6283;51.330;12.374;2023-02-12T01:54:16;6.90;1.00
12438;DHT22;6283;51.330;12.374;2023-02-12T01:56:43;7.10;1.00
12438;DHT22;6283;51.330;12.374;2023-02-12T01:59:10;7.10;1.00
12438;DHT22;6283;51.330;12.374;2023-02-12T02:01:37;7.00;1.00
12438;DHT22;6283;51.330;12.374;2023-02-12T02:04:11;6.90;1.00
12438;DHT22;6283;51.330;12.374;2023-02-12T02:06:57;6.90;1.00
12438;DHT22;6283;51.330;12.374;2023-02-12T02:09:23;7.20;1.00
12438;DHT22;6283;51.330;12.374;2023-02-12T02:11:49;6.90;1.00
12438;DHT22;6283;51.330;12.374;2023-02-12T02:14:34;7.00;1.00
12438;DHT22;6283;51.330;12.374;2023-02-12T02:22:46;7.00;1.00
12438;DHT22;6283;51.330;12.374;2023-02-12T02:33:35;7.00;1.00
12438;DHT22;6283;51.330;12.374;2023-02-12T02:38:40;7.00;1.00
12438;DHT22;6283;51.330;12.374;2023-02-12T02:41:14;7.00;1.00
12438;DHT22;6283;51.330;12.374;2023-02-12T02:43:51;7.10;1.00
12438;DHT22;6283;51.330;12.374;2023-02-12T02:46:26;7.10;1.00
12438;DHT22;6283;51.330;12.374;2023-02-12T02:48:57;7.00;1.00
12438;DHT22;6283;51.330;12.374;2023-02-12T02:51:28;7.00;1.00
12438;DHT22;6283;51.330;12.374;2023-02-12T02:54:04;7.20;1.00
12438;DHT22;6283;51.330;12.374;2023-02-12T02:56:34;7.20;1.00
12438;DHT22;6283;51.330;12.374;2023-02-12T02:59:06;7.00;1.00
12438;DHT22;6283;51.330;12.374;2023-02-12T03:01:39;7.10;1.00
12438;DHT22;6283;51.330;12.374;2023-02-12T03:04:07;7.20;1.00
12438;DHT22;6283;51.330;12.374;2023-02-12T03:06:42;7.20;1.00
12438;DHT22;6283;51.330;12.374;2023-02-12T03:09:23;7.20;1.00
12438;DHT22;6283;51.330;12.374;2023-02-12T03:11:54;7.40;1.00
12438;DHT22;6283;51.330;12.374;2023-02-12T03:14:27;7.40;1.00
12438;DHT22;6283;51.330;12.374;2023-02-12T03:17:22;7.20;1.00
12438;DHT22;6283;51.330;12.374;2023-02-12T03:20:02;7.30;1.00
12438;DHT22;6283;51.330;12.374;2023-02-12T03:22:35;7.20;1.00
12438;DHT22;6283;51.330;12.374;2023-02-12T03:25:17;7.50;1.00
12438;DHT22;6283;51.330;12.374;2023-02-12T03:27:48;7.20;1.00
12438;DHT22;6283;51.330;12.374;2023-02-12T03:30:15;7.30;1.00
12438;DHT22;6283;51.330;12.374;2023-02-12T03:32:52;7.30;1.00
12438;DHT22;6283;51.330;12.374;2023-02-12T03:35:37;7.30;1.00
12438;DHT22;6283;51.330;12.374;2023-02-12T03:38:43;7.30;1.00
12438;DHT22;6283;51.330;12.374;2023-02-12T03:46:26;7.50;1.00
12438;DHT22;6283;51.330;12.374;2023-02-12T03:49:06;7.40;1.00
12438;DHT22;6283;51.330;12.374;2023-02-12T03:51:40;7.50;1.00
12438;DHT22;6283;51.330;12.374;2023-02-12T03:54:09;7.30;1.00
12438;DHT22;6283;51.330;12.374;2023-02-12T03:56:47;7.40;1.00
12438;DHT22;6283;51.330;12.374;2023-02-12T03:59:17;7.40;1.00
12438;DHT22;6283;51.330;12.374;2023-02-12T04:01:43;7.40;1.00
12438;DHT22;6283;51.330;12.374;2023-02-12T04:04:09;7.60;1.00
12438;DHT22;6283;51.330;12.374;2023-02-12T04:06:35;7.50;1.00
12438;DHT22;6283;51.330;12.374;2023-02-12T04:09:04;7.60;1.00
12438;DHT22;6283;51.330;12.374;2023-02-12T04:14:21;7.50;1.00
12438;DHT22;6283;51.330;12.374;2023-02-12T04:17:05;7.50;1.00
12438;DHT22;6283;51.330;12.374;2023-02-12T04:19:46;7.50;1.00
12438;DHT22;6283;51.330;12.374;2023-02-12T04:27:59;7.60;1.00
12438;DHT22;6283;51.330;12.374;2023-02-12T04:30:38;7.50;1.00
12438;DHT22;6283;51.330;12.374;2023-02-12T04:33:09;7.60;1.00
12438;DHT22;6283;51.330;12.374;2023-02-12T04:35:43;7.50;1.00
12438;DHT22;6283;51.330;12.374;2023-02-12T04:40:45;7.60;1.00
12438;DHT22;6283;51.330;12.374;2023-02-12T04:43:12;7.60;1.00
12438;DHT22;6283;51.330;12.374;2023-02-12T04:45:38;7.40;1.00
12438;DHT22;6283;51.330;12.374;2023-02-12T04:48:04;7.60;1.00
12438;DHT22;6283;51.330;12.374;2023-02-12T04:50:41;7.50;1.00
12438;DHT22;6283;51.330;12.374;2023-02-12T04:53:08;7.60;1.00
12438;DHT22;6283;51.330;12.374;2023-02-12T04:55:34;7.60;1.00
12438;DHT22;6283;51.330;12.374;2023-02-12T04:57:59;7.60;1.00
12438;DHT22;6283;51.330;12.374;2023-02-12T05:00:25;7.40;1.00
12438;DHT22;6283;51.330;12.374;2023-02-12T05:02:51;7.40;1.00
12438;DHT22;6283;51.330;12.374;2023-02-12T05:05:17;7.50;1.00
12438;DHT22;6283;51.330;12.374;2023-02-12T05:07:42;7.70;1.00
12438;DHT22;6283;51.330;12.374;2023-02-12T05:10:08;7.40;1.00
12438;DHT22;6283;51.330;12.374;2023-02-12T05:12:34;7.60;1.00
12438;DHT22;6283;51.330;12.374;2023-02-12T05:14:59;7.40;1.00
12438;DHT22;6283;51.330;12.374;2023-02-12T05:17:25;7.50;1.00
12438;DHT22;6283;51.330;12.374;2023-02-12T05:19:51;7.50;1.00
12438;DHT22;6283;51.330;12.374;2023-02-12T05:22:16;7.60;1.00
12438;DHT22;6283;51.330;12.374;2023-02-12T05:24:42;7.50;1.00
12438;DHT22;6283;51.330;12.374;2023-02-12T05:27:08;7.50;1.00
12438;DHT22;6283;51.330;12.374;2023-02-12T05:29:34;7.20;1.00
12438;DHT22;6283;51.330;12.374;2023-02-12T05:32:00;7.50;1.00
12438;DHT22;6283;51.330;12.374;2023-02-12T05:34:28;7.60;1.00
12438;DHT22;6283;51.330;12.374;2023-02-12T05:36:54;7.40;1.00
12438;DHT22;6283;51.330;12.374;2023-02-12T05:39:19;7.20;1.00
12438;DHT22;6283;51.330;12.374;2023-02-12T05:41:45;7.50;1.00
12438;DHT22;6283;51.330;12.374;2023-02-12T05:44:11;7.40;1.00
12438;DHT22;6283;51.330;12.374;2023-02-12T05:46:38;7.40;1.00
12438;DHT22;6283;51.330;12.374;2023-02-12T05:49:04;7.20;1.00
12438;DHT22;6283;51.330;12.374;2023-02-12T05:51:29;7.20;1.00
12438;DHT22;6283;51.330;12.374;2023-02-12T05:53:59;7.30;1.00
12438;DHT22;6283;51.330;12.374;2023-02-12T05:56:28;7.20;1.00
12438;DHT22;6283;51.330;12.374;2023-02-12T05:59:00;7.50;1.00
12438;DHT22;6283;51.330;12.374;2023-02-12T06:03:58;7.40;1.00
12438;DHT22;6283;51.330;12.374;2023-02-12T06:06:28;7.30;1.00
12438;DHT22;6283;51.330;12.374;2023-02-12T06:08:54;7.30;1.00
12438;DHT22;6283;51.330;12.374;2023-02-12T06:11:21;7.40;1.00
12438;DHT22;6283;51.330;12.374;2023-02-12T06:13:47;7.20;1.00
12438;DHT22;6283;51.330;12.374;2023-02-12T06:16:24;7.40;1.00
12438;DHT22;6283;51.330;12.374;2023-02-12T06:18:50;7.40;1.00
12438;DHT22;6283;51.330;12.374;2023-02-12T06:21:16;7.50;1.00
12438;DHT22;6283;51.330;12.374;2023-02-12T06:23:42;7.50;1.00
12438;DHT22;6283;51.330;12.374;2023-02-12T06:26:08;7.50;1.00
12438;DHT22;6283;51.330;12.374;2023-02-12T06:28:34;7.60;1.00
12438;DHT22;6283;51.330;12.374;2023-02-12T06:31:00;7.20;1.00
12438;DHT22;6283;51.330;12.374;2023-02-12T06:33:25;7.60;1.00
12438;DHT22;6283;51.330;12.374;2023-02-12T06:35:51;7.50;1.00
12438;DHT22;6283;51.330;12.374;2023-02-12T06:38:16;7.60;1.00
12438;DHT22;6283;51.330;12.374;2023-02-12T06:40:42;7.40;1.00
12438;DHT22;6283;51.330;12.374;2023-02-12T06:43:08;7.40;1.00
12438;DHT22;6283;51.330;12.374;2023-02-12T06:45:34;7.40;1.00
12438;DHT22;6283;51.330;12.374;2023-02-12T06:47:59;7.40;1.00
12438;DHT22;6283;51.330;12.374;2023-02-12T06:50:25;7.50;1.00
12438;DHT22;6283;51.330;12.374;2023-02-12T06:52:50;7.60;1.00
12438;DHT22;6283;51.330;12.374;2023-02-12T06:55:16;7.40;1.00
12438;DHT22;6283;51.330;12.374;2023-02-12T06:57:42;7.50;1.00
12438;DHT22;6283;51.330;12.374;2023-02-12T07:00:08;7.30;1.00
12438;DHT22;6283;51.330;12.374;2023-02-12T07:02:34;7.30;1.00
12438;DHT22;6283;51.330;12.374;2023-02-12T07:05:00;7.30;1.00
12438;DHT22;6283;51.330;12.374;2023-02-12T07:07:25;7.50;1.00
12438;DHT22;6283;51.330;12.374;2023-02-12T07:09:51;7.50;1.00
12438;DHT22;6283;51.330;12.374;2023-02-12T07:12:16;7.40;1.00
12438;DHT22;6283;51.330;12.374;2023-02-12T07:14:42;7.40;1.00
12438;DHT22;6283;51.330;12.374;2023-02-12T07:17:07;7.40;1.00
12438;DHT22;6283;51.330;12.374;2023-02-12T07:19:35;7.40;1.00
12438;DHT22;6283;51.330;12.374;2023-02-12T07:22:01;7.60;1.00
12438;DHT22;6283;51.330;12.374;2023-02-12T07:24:27;7.40;1.00
12438;DHT22;6283;51.330;12.374;2023-02-12T07:26:52;7.40;1.00
12438;DHT22;6283;51.330;12.374;2023-02-12T07:29:18;7.60;1.00
12438;DHT22;6283;51.330;12.374;2023-02-12T07:31:44;7.40;1.00
12438;DHT22;6283;51.330;12.374;2023-02-12T07:34:10;7.50;1.00
12438;DHT22;6283;51.330;12.374;2023-02-12T07:36:35;7.60;1.00
12438;DHT22;6283;51.330;12.374;2023-02-12T07:39:02;7.70;1.00
12438;DHT22;6283;51.330;12.374;2023-02-12T07:41:34;7.60;1.00
12438;DHT22;6283;51.330;12.374;2023-02-12T07:44:06;7.60;1.00
12438;DHT22;6283;51.330;12.374;2023-02-12T07:46:34;7.70;1.00
12438;DHT22;6283;51.330;12.374;2023-02-12T07:49:02;7.60;1.00
12438;DHT22;6283;51.330;12.374;2023-02-12T07:51:29;7.50;1.00
12438;DHT22;6283;51.330;12.374;2023-02-12T07:53:57;7.40;1.00
12438;DHT22;6283;51.330;12.374;2023-02-12T07:56:24;7.70;1.00
12438;DHT22;6283;51.330;12.374;2023-02-12T07:58:55;7.60;1.00
12438;DHT22;6283;51.330;12.374;2023-02-12T08:01:27;7.80;1.00
12438;DHT22;6283;51.330;12.374;2023-02-12T08:03:56;7.60;1.00
12438;DHT22;6283;51.330;12.374;2023-02-12T08:06:24;7.80;1.00
12438;DHT22;6283;51.330;12.374;2023-02-12T08:08:55;7.50;1.00
12438;DHT22;6283;51.330;12.374;2023-02-12T08:11:21;7.30;1.00
12438;DHT22;6283;51.330;12.374;2023-02-12T08:13:47;7.60;1.00
12438;DHT22;6283;51.330;12.374;2023-02-12T08:16:19;7.50;1.00
12438;DHT22;6283;51.330;12.374;2023-02-12T08:18:45;7.60;1.00
12438;DHT22;6283;51.330;12.374;2023-02-12T08:21:13;7.60;1.00
12438;DHT22;6283;51.330;12.374;2023-02-12T08:23:40;7.60;1.00
12438;DHT22;6283;51.330;12.374;2023-02-12T08:26:14;7.60;1.00
12438;DHT22;6283;51.330;12.374;2023-02-12T08:28:49;7.60;1.00
12438;DHT22;6283;51.330;12.374;2023-02-12T08:31:26;7.60;1.00
12438;DHT22;6283;51.330;12.374;2023-02-12T08:33:53;7.80;1.00
12438;DHT22;6283;51.330;12.374;2023-02-12T08:36:21;7.80;1.00
12438;DHT22;6283;51.330;12.374;2023-02-12T08:38:47;7.60;1.00
12438;DHT22;6283;51.330;12.374;2023-02-12T08:41:18;7.60;1.00
12438;DHT22;6283;51.330;12.374;2023-02-12T08:43:44;7.80;1.00
12438;DHT22;6283;51.330;12.374;2023-02-12T08:46:16;7.70;1.00
12438;DHT22;6283;51.330;12.374;2023-02-12T08:48:42;7.70;1.00
12438;DHT22;6283;51.330;12.374;2023-02-12T08:53:40;7.90;1.00
12438;DHT22;6283;51.330;12.374;2023-02-12T08:56:06;7.70;1.00
12438;DHT22;6283;51.330;12.374;2023-02-12T08:58:34;7.90;1.00
12438;DHT22;6283;51.330;12.374;2023-02-12T09:01:00;8.10;1.00
12438;DHT22;6283;51.330;12.374;2023-02-12T09:03:26;8.00;1.00
12438;DHT22;6283;51.330;12.374;2023-02-12T09:05:52;7.70;1.00
12438;DHT22;6283;51.330;12.374;2023-02-12T09:08:17;7.70;1.00
12438;DHT22;6283;51.330;12.374;2023-02-12T09:10:44;7.80;1.00
12438;DHT22;6283;51.330;12.374;2023-02-12T09:13:11;7.80;1.00
12438;DHT22;6283;51.330;12.374;2023-02-12T09:15:38;8.00;1.00
12438;DHT22;6283;51.330;12.374;2023-02-12T09:18:04;8.10;1.00
12438;DHT22;6283;51.330;12.374;2023-02-12T09:20:31;8.10;1.00
12438;DHT22;6283;51.330;12.374;2023-02-12T09:22:58;8.20;1.00
12438;DHT22;6283;51.330;12.374;2023-02-12T09:25:24;8.40;1.00
12438;DHT22;6283;51.330;12.374;2023-02-12T09:27:49;8.50;1.00
12438;DHT22;6283;51.330;12.374;2023-02-12T09:30:15;8.50;1.00
12438;DHT22;6283;51.330;12.374;2023-02-12T09:32:40;8.60;1.00
12438;DHT22;6283;51.330;12.374;2023-02-12T09:35:06;8.20;1.00
12438;DHT22;6283;51.330;12.374;2023-02-12T09:37:32;8.60;1.00
12438;DHT22;6283;51.330;12.374;2023-02-12T09:39:57;8.60;1.00
12438;DHT22;6283;51.330;12.374;2023-02-12T09:42:59;8.60;1.00
12438;DHT22;6283;51.330;12.374;2023-02-12T09:45:20;8.70;1.00
12438;DHT22;6283;51.330;12.374;2023-02-12T09:47:57;8.60;1.00
12438;DHT22;6283;51.330;12.374;2023-02-12T09:50:36;8.50;1.00
12438;DHT22;6283;51.330;12.374;2023-02-12T09:53:05;8.50;1.00
12438;DHT22;6283;51.330;12.374;2023-02-12T09:55:32;8.60;1.00
12438;DHT22;6283;51.330;12.374;2023-02-12T09:58:02;8.60;1.00
12438;DHT22;6283;51.330;12.374;2023-02-12T10:00:30;8.40;1.00
12438;DHT22;6283;51.330;12.374;2023-02-12T10:03:00;8.60;1.00
12438;DHT22;6283;51.330;12.374;2023-02-12T10:14:28;8.50;1.00
12438;DHT22;6283;51.330;12.374;2023-02-12T10:25:58;8.50;1.00
12438;DHT22;6283;51.330;12.374;2023-02-12T10:28:30;8.60;1.00
12438;DHT22;6283;51.330;12.374;2023-02-12T10:33:48;8.70;1.00
12438;DHT22;6283;51.330;12.374;2023-02-12T10:44:34;8.60;1.00
12438;DHT22;6283;51.330;12.374;2023-02-12T10:47:00;8.90;1.00
12438;DHT22;6283;51.330;12.374;2023-02-12T10:49:26;8.70;1.00
12438;DHT22;6283;51.330;12.374;2023-02-12T10:52:16;8.60;1.00
12438;DHT22;6283;51.330;12.374;2023-02-12T10:54:48;8.80;1.00
12438;DHT22;6283;51.330;12.374;2023-02-12T10:59:46;8.90;1.00
12438;DHT22;6283;51.330;12.374;2023-02-12T11:04:51;8.90;1.00
12438;DHT22;6283;51.330;12.374;2023-02-12T11:07:17;8.80;1.00
12438;DHT22;6283;51.330;12.374;2023-02-12T11:09:47;8.80;1.00
12438;DHT22;6283;51.330;12.374;2023-02-12T11:12:41;8.90;1.00
12438;DHT22;6283;51.330;12.374;2023-02-12T11:15:23;8.70;1.00
12438;DHT22;6283;51.330;12.374;2023-02-12T11:17:59;8.80;1.00
12438;DHT22;6283;51.330;12.374;2023-02-12T11:20:48;8.80;1.00
12438;DHT22;6283;51.330;12.374;2023-02-12T11:28:25;9.20;1.00
12438;DHT22;6283;51.330;12.374;2023-02-12T11:33:39;8.90;1.00
12438;DHT22;6283;51.330;12.374;2023-02-12T11:36:25;9.20;1.00
12438;DHT22;6283;51.330;12.374;2023-02-12T11:38:56;9.20;1.00
12438;DHT22;6283;51.330;12.374;2023-02-12T11:41:38;9.00;1.00
12438;DHT22;6283;51.330;12.374;2023-02-12T11:46:54;9.00;1.00
12438;DHT22;6283;51.330;12.374;2023-02-12T11:49:24;9.20;1.00
12438;DHT22;6283;51.330;12.374;2023-02-12T11:51:53;8.90;1.00
12438;DHT22;6283;51.330;12.374;2023-02-12T11:54:22;8.80;1.00
12438;DHT22;6283;51.330;12.374;2023-02-12T11:56:48;9.00;1.00
12438;DHT22;6283;51.330;12.374;2023-02-12T12:01:47;8.80;1.00
12438;DHT22;6283;51.330;12.374;2023-02-12T12:04:14;8.90;1.00
12438;DHT22;6283;51.330;12.374;2023-02-12T12:07:09;8.80;1.00
12438;DHT22;6283;51.330;12.374;2023-02-12T12:09:59;9.00;1.00
12438;DHT22;6283;51.330;12.374;2023-02-12T12:12:32;9.00;1.00
12438;DHT22;6283;51.330;12.374;2023-02-12T12:15:20;8.90;1.00
12438;DHT22;6283;51.330;12.374;2023-02-12T12:23:43;8.90;1.00
12438;DHT22;6283;51.330;12.374;2023-02-12T12:26:25;8.70;1.00
12438;DHT22;6283;51.330;12.374;2023-02-12T12:31:40;8.90;1.00
12438;DHT22;6283;51.330;12.374;2023-02-12T12:34:15;9.00;1.00
12438;DHT22;6283;51.330;12.374;2023-02-12T12:39:45;9.10;1.00
12438;DHT22;6283;51.330;12.374;2023-02-12T12:42:31;8.80;1.00
12438;DHT22;6283;51.330;12.374;2023-02-12T12:53:10;8.70;1.00
12438;DHT22;6283;51.330;12.374;2023-02-12T12:58:38;8.70;1.00
12438;DHT22;6283;51.330;12.374;2023-02-12T13:04:46;8.90;1.00
12438;DHT22;6283;51.330;12.374;2023-02-12T13:09:52;8.80;1.00
12438;DHT22;6283;51.330;12.374;2023-02-12T13:17:45;8.90;1.00
12438;DHT22;6283;51.330;12.374;2023-02-12T13:23:37;8.60;1.00
12438;DHT22;6283;51.330;12.374;2023-02-12T13:26:08;8.50;1.00
12438;DHT22;6283;51.330;12.374;2023-02-12T13:28:41;8.40;1.00
12438;DHT22;6283;51.330;12.374;2023-02-12T13:31:13;8.30;1.00
12438;DHT22;6283;51.330;12.374;2023-02-12T13:33:47;8.50;1.00
12438;DHT22;6283;51.330;12.374;2023-02-12T13:36:14;8.50;1.00
12438;DHT22;6283;51.330;12.374;2023-02-12T13:38:50;8.40;1.00
12438;DHT22;6283;51.330;12.374;2023-02-12T13:41:17;8.40;1.00
12438;DHT22;6283;51.330;12.374;2023-02-12T13:49:16;8.60;1.00
12438;DHT22;6283;51.330;12.374;2023-02-12T13:51:46;8.50;1.00
12438;DHT22;6283;51.330;12.374;2023-02-12T13:57:18;8.80;1.00
12438;DHT22;6283;51.330;12.374;2023-02-12T13:59:52;8.80;1.00
12438;DHT22;6283;51.330;12.374;2023-02-12T14:02:29;8.80;1.00
12438;DHT22;6283;51.330;12.374;2023-02-12T14:05:24;8.90;1.00
12438;DHT22;6283;51.330;12.374;2023-02-12T14:07:53;9.10;1.00
12438;DHT22;6283;51.330;12.374;2023-02-12T14:10:32;8.90;1.00
12438;DHT22;6283;51.330;12.374;2023-02-12T14:13:13;9.00;1.00
12438;DHT22;6283;51.330;12.374;2023-02-12T14:15:49;9.00;1.00
12438;DHT22;6283;51.330;12.374;2023-02-12T14:18:33;8.90;1.00
12438;DHT22;6283;51.330;12.374;2023-02-12T14:23:42;9.00;1.00
12438;DHT22;6283;51.330;12.374;2023-02-12T14:26:13;8.90;1.00
12438;DHT22;6283;51.330;12.374;2023-02-12T14:28:52;9.30;1.00
12438;DHT22;6283;51.330;12.374;2023-02-12T14:33:50;9.30;1.00
12438;DHT22;6283;51.330;12.374;2023-02-12T14:41:35;9.30;1.00
12438;DHT22;6283;51.330;12.374;2023-02-12T14:46:49;9.20;1.00
12438;DHT22;6283;51.330;12.374;2023-02-12T14:49:33;9.20;1.00
12438;DHT22;6283;51.330;12.374;2023-02-12T14:57:26;9.20;1.00
12438;DHT22;6283;51.330;12.374;2023-02-12T15:00:20;9.30;1.00
12438;DHT22;6283;51.330;12.374;2023-02-12T15:05:37;9.10;1.00
12438;DHT22;6283;51.330;12.374;2023-02-12T15:08:52;9.20;1.00
12438;DHT22;6283;51.330;12.374;2023-02-12T15:13:48;9.10;1.00
12438;DHT22;6283;51.330;12.374;2023-02-12T15:22:29;9.20;1.00
12438;DHT22;6283;51.330;12.374;2023-02-12T15:27:43;9.00;1.00
12438;DHT22;6283;51.330;12.374;2023-02-12T15:30:23;9.30;1.00
12438;DHT22;6283;51.330;12.374;2023-02-12T15:32:50;9.20;1.00
12438;DHT22;6283;51.330;12.374;2023-02-12T15:35:24;9.30;1.00
12438;DHT22;6283;51.330;12.374;2023-02-12T15:37:50;9.30;1.00
12438;DHT22;6283;51.330;12.374;2023-02-12T15:40:16;9.20;1.00
12438;DHT22;6283;51.330;12.374;2023-02-12T15:45:25;9.40;1.00
12438;DHT22;6283;51.330;12.374;2023-02-12T15:48:20;9.30;1.00
12438;DHT22;6283;51.330;12.374;2023-02-12T15:53:37;9.20;1.00
12438;DHT22;6283;51.330;12.374;2023-02-12T15:56:03;9.50;1.00
12438;DHT22;6283;51.330;12.374;2023-02-12T15:58:40;9.30;1.00
12438;DHT22;6283;51.330;12.374;2023-02-12T16:01:07;9.30;1.00
12438;DHT22;6283;51.330;12.374;2023-02-12T16:03:36;9.10;1.00
12438;DHT22;6283;51.330;12.374;2023-02-12T16:06:09;9.20;1.00
12438;DHT22;6283;51.330;12.374;2023-02-12T16:08:36;9.40;1.00
12438;DHT22;6283;51.330;12.374;2023-02-12T16:11:03;9.50;1.00
12438;DHT22;6283;51.330;12.374;2023-02-12T16:13:41;9.30;1.00
12438;DHT22;6283;51.330;12.374;2023-02-12T16:18:35;9.30;1.00
12438;DHT22;6283;51.330;12.374;2023-02-12T16:21:11;9.40;1.00
12438;DHT22;6283;51.330;12.374;2023-02-12T16:23:39;9.40;1.00
12438;DHT22;6283;51.330;12.374;2023-02-12T16:26:06;9.30;1.00
12438;DHT22;6283;51.330;12.374;2023-02-12T16:28:32;9.40;1.00
12438;DHT22;6283;51.330;12.374;2023-02-12T16:31:10;9.40;1.00
12438;DHT22;6283;51.330;12.374;2023-02-12T16:38:52;9.50;1.00
12438;DHT22;6283;51.330;12.374;2023-02-12T16:46:25;9.30;1.00
12438;DHT22;6283;51.330;12.374;2023-02-12T16:48:52;9.20;1.00
12438;DHT22;6283;51.330;12.374;2023-02-12T16:51:27;9.20;1.00
12438;DHT22;6283;51.330;12.374;2023-02-12T16:53:55;9.30;1.00
12438;DHT22;6283;51.330;12.374;2023-02-12T16:56:23;9.30;1.00
12438;DHT22;6283;51.330;12.374;2023-02-12T16:58:51;9.40;1.00
12438;DHT22;6283;51.330;12.374;2023-02-12T17:01:25;9.40;1.00
12438;DHT22;6283;51.330;12.374;2023-02-12T17:03:52;9.40;1.00
12438;DHT22;6283;51.330;12.374;2023-02-12T17:06:23;9.10;1.00
12438;DHT22;6283;51.330;12.374;2023-02-12T17:08:50;9.20;1.00
12438;DHT22;6283;51.330;12.374;2023-02-12T17:11:16;9.10;1.00
12438;DHT22;6283;51.330;12.374;2023-02-12T17:13:47;9.40;1.00
12438;DHT22;6283;51.330;12.374;2023-02-12T17:16:15;9.50;1.00
12438;DHT22;6283;51.330;12.374;2023-02-12T17:18:41;9.20;1.00
12438;DHT22;6283;51.330;12.374;2023-02-12T17:21:13;9.20;1.00
12438;DHT22;6283;51.330;12.374;2023-02-12T17:23:44;9.40;1.00
12438;DHT22;6283;51.330;12.374;2023-02-12T17:26:10;9.20;1.00
12438;DHT22;6283;51.330;12.374;2023-02-12T17:28:37;9.30;1.00
12438;DHT22;6283;51.330;12.374;2023-02-12T17:31:03;9.20;1.00
12438;DHT22;6283;51.330;12.374;2023-02-12T17:33:31;9.60;1.00
12438;DHT22;6283;51.330;12.374;2023-02-12T17:35:57;9.30;1.00
12438;DHT22;6283;51.330;12.374;2023-02-12T17:38:23;9.40;1.00
12438;DHT22;6283;51.330;12.374;2023-02-12T17:40:51;9.40;1.00
12438;DHT22;6283;51.330;12.374;2023-02-12T17:43:18;9.40;1.00
12438;DHT22;6283;51.330;12.374;2023-02-12T17:45:43;9.50;1.00
12438;DHT22;6283;51.330;12.374;2023-02-12T17:48:11;9.30;1.00
12438;DHT22;6283;51.330;12.374;2023-02-12T17:50:38;9.30;1.00
12438;DHT22;6283;51.330;12.374;2023-02-12T17:53:04;9.50;1.00
12438;DHT22;6283;51.330;12.374;2023-02-12T17:55:30;9.60;1.00
12438;DHT22;6283;51.330;12.374;2023-02-12T17:57:56;9.40;1.00
12438;DHT22;6283;51.330;12.374;2023-02-12T18:00:22;9.60;1.00
12438;DHT22;6283;51.330;12.374;2023-02-12T18:02:50;9.50;1.00
12438;DHT22;6283;51.330;12.374;2023-02-12T18:05:15;9.70;1.00
12438;DHT22;6283;51.330;12.374;2023-02-12T18:07:41;9.60;1.00
12438;DHT22;6283;51.330;12.374;2023-02-12T18:10:08;9.50;1.00
12438;DHT22;6283;51.330;12.374;2023-02-12T18:12:34;9.40;1.00
12438;DHT22;6283;51.330;12.374;2023-02-12T18:15:01;9.30;1.00
12438;DHT22;6283;51.330;12.374;2023-02-12T18:17:27;9.50;1.00
12438;DHT22;6283;51.330;12.374;2023-02-12T18:19:53;9.30;1.00
12438;DHT22;6283;51.330;12.374;2023-02-12T18:22:19;9.40;1.00
12438;DHT22;6283;51.330;12.374;2023-02-12T18:24:45;9.50;1.00
12438;DHT22;6283;51.330;12.374;2023-02-12T18:27:12;9.30;1.00
12438;DHT22;6283;51.330;12.374;2023-02-12T18:29:38;9.30;1.00
12438;DHT22;6283;51.330;12.374;2023-02-12T18:32:04;9.40;1.00
12438;DHT22;6283;51.330;12.374;2023-02-12T18:34:30;9.30;1.00
12438;DHT22;6283;51.330;12.374;2023-02-12T18:36:56;9.40;1.00
12438;DHT22;6283;51.330;12.374;2023-02-12T18:39:22;9.40;1.00
12438;DHT22;6283;51.330;12.374;2023-02-12T18:41:47;9.20;1.00
12438;DHT22;6283;51.330;12.374;2023-02-12T18:44:13;9.40;1.00
12438;DHT22;6283;51.330;12.374;2023-02-12T18:46:39;9.20;1.00
12438;DHT22;6283;51.330;12.374;2023-02-12T18:49:05;9.10;1.00
12438;DHT22;6283;51.330;12.374;2023-02-12T18:51:31;9.20;1.00
12438;DHT22;6283;51.330;12.374;2023-02-12T18:54:02;9.30;1.00
12438;DHT22;6283;51.330;12.374;2023-02-12T18:56:30;9.20;1.00
12438;DHT22;6283;51.330;12.374;2023-02-12T18:58:58;9.10;1.00
12438;DHT22;6283;51.330;12.374;2023-02-12T19:01:25;9.30;1.00
12438;DHT22;6283;51.330;12.374;2023-02-12T19:03:55;9.10;1.00
12438;DHT22;6283;51.330;12.374;2023-02-12T19:06:22;9.00;1.00
12438;DHT22;6283;51.330;12.374;2023-02-12T19:08:48;9.30;1.00
12438;DHT22;6283;51.330;12.374;2023-02-12T19:11:14;9.00;1.00
12438;DHT22;6283;51.330;12.374;2023-02-12T19:13:40;9.10;1.00
12438;DHT22;6283;51.330;12.374;2023-02-12T19:16:11;9.00;1.00
12438;DHT22;6283;51.330;12.374;2023-02-12T19:18:37;9.10;1.00
12438;DHT22;6283;51.330;12.374;2023-02-12T19:21:11;9.20;1.00